createdAt,value
2022-08-26T00:01:44.125Z,11.00
2022-08-26T00:04:34.293Z,12.07
2022-08-26T00:07:21.994Z,10.90
2022-08-26T00:10:12.174Z,10.85
2022-08-26T00:13:01.490Z,11.40
2022-08-26T00:15:51.249Z,10.35
2022-08-26T00:18:40.793Z,11.43
2022-08-26T00:21:28.712Z,10.68
2022-08-26T00:24:16.792Z,10.77
2022-08-26T00:27:06.300Z,10.77
2022-08-26T00:29:55.461Z,11.18
2022-08-26T00:32:46.356Z,11.27
2022-08-26T00:35:34.880Z,11.25
2022-08-26T00:38:24.900Z,13.07
2022-08-26T00:41:13.169Z,12.52
2022-08-26T00:44:01.283Z,10.55
2022-08-26T00:46:54.083Z,11.75
2022-08-26T00:49:45.241Z,11.20
2022-08-26T00:52:33.444Z,11.10
2022-08-26T00:55:25.125Z,11.20
2022-08-26T00:58:25.384Z,11.10
2022-08-26T01:01:13.621Z,10.85
2022-08-26T01:04:02.945Z,10.40
2022-08-26T01:06:52.884Z,11.18
2022-08-26T01:09:40.507Z,11.25
2022-08-26T01:12:32.433Z,11.18
2022-08-26T01:15:24.046Z,10.18
2022-08-26T01:18:12.579Z,10.43
2022-08-26T01:21:11.507Z,11.75
2022-08-26T01:24:01.324Z,12.73
2022-08-26T01:26:50.414Z,12.02
2022-08-26T01:29:40.992Z,13.25
2022-08-26T01:32:29.045Z,15.52
2022-08-26T01:35:16.685Z,13.20
2022-08-26T01:38:06.652Z,13.38
2022-08-26T01:40:56.460Z,15.45
2022-08-26T01:43:47.145Z,16.38
2022-08-26T01:46:36.299Z,12.65
2022-08-26T01:49:26.637Z,12.57
2022-08-26T01:52:19.628Z,14.30
2022-08-26T01:55:10.616Z,13.63
2022-08-26T01:58:02.146Z,15.25
2022-08-26T02:00:51.413Z,13.88
2022-08-26T02:03:50.947Z,14.88
2022-08-26T02:06:40.027Z,13.80
2022-08-26T02:09:28.270Z,13.77
2022-08-26T02:12:20.876Z,14.90
2022-08-26T02:15:13.430Z,12.45
2022-08-26T02:18:02.380Z,12.20
2022-08-26T02:20:51.680Z,13.32
2022-08-26T02:23:39.682Z,12.82
2022-08-26T02:26:27.912Z,13.73
2022-08-26T02:29:25.335Z,12.85
2022-08-26T02:32:18.667Z,12.07
2022-08-26T02:35:07.570Z,12.02
2022-08-26T02:37:55.476Z,12.55
2022-08-26T02:40:46.171Z,11.70
2022-08-26T02:43:35.804Z,12.38
2022-08-26T02:46:29.810Z,11.48
2022-08-26T02:49:20.015Z,10.50
2022-08-26T02:52:08.744Z,11.70
2022-08-26T02:54:56.184Z,11.40
2022-08-26T02:57:44.071Z,10.57
2022-08-26T03:00:33.328Z,11.55
2022-08-26T03:03:23.476Z,13.60
2022-08-26T03:06:12.844Z,12.27
2022-08-26T03:09:00.676Z,12.65
2022-08-26T03:11:48.322Z,11.50
2022-08-26T03:14:37.441Z,11.57
2022-08-26T03:17:25.284Z,12.95
2022-08-26T03:20:17.534Z,12.18
2022-08-26T03:23:06.833Z,12.88
2022-08-26T03:25:55.099Z,12.75
2022-08-26T03:28:58.098Z,11.40
2022-08-26T03:31:47.007Z,11.90
2022-08-26T03:34:35.646Z,10.25
2022-08-26T03:37:23.177Z,11.02
2022-08-26T03:40:13.804Z,11.63
2022-08-26T03:43:01.722Z,12.13
2022-08-26T03:45:50.104Z,11.40
2022-08-26T03:48:39.628Z,10.60
2022-08-26T03:51:27.894Z,11.88
2022-08-26T03:54:16.773Z,10.35
2022-08-26T03:57:06.065Z,9.50
2022-08-26T03:59:53.739Z,10.30
2022-08-26T04:02:41.729Z,10.43
2022-08-26T04:05:29.627Z,10.38
2022-08-26T04:08:18.189Z,10.82
2022-08-26T04:11:06.997Z,10.43
2022-08-26T04:13:56.061Z,10.10
2022-08-26T04:16:45.156Z,11.85
2022-08-26T04:19:33.814Z,10.80
2022-08-26T04:22:24.400Z,10.70
2022-08-26T04:25:13.647Z,11.30
2022-08-26T04:28:01.209Z,12.35
2022-08-26T04:30:51.427Z,11.95
2022-08-26T04:33:41.868Z,12.65
2022-08-26T04:36:30.096Z,10.63
2022-08-26T04:39:18.719Z,10.70
2022-08-26T04:42:07.847Z,11.07
2022-08-26T04:44:56.486Z,10.35
2022-08-26T04:47:45.934Z,10.50
2022-08-26T04:50:33.815Z,9.75
2022-08-26T04:53:22.129Z,10.85
2022-08-26T04:56:11.191Z,11.32
2022-08-26T04:58:59.234Z,11.35
2022-08-26T05:01:49.198Z,13.43
2022-08-26T05:04:38.800Z,13.05
2022-08-26T05:07:26.751Z,13.57
2022-08-26T05:10:14.707Z,12.63
2022-08-26T05:13:03.773Z,13.77
2022-08-26T05:16:01.163Z,14.77
2022-08-26T05:18:49.560Z,14.18
2022-08-26T05:21:39.653Z,15.60
2022-08-26T05:24:27.355Z,18.80
2022-08-26T05:27:14.944Z,19.23
2022-08-26T05:30:02.939Z,19.90
2022-08-26T05:32:55.255Z,21.80
2022-08-26T05:35:43.807Z,23.52
2022-08-26T05:38:33.173Z,24.65
2022-08-26T05:41:24.873Z,24.85
2022-08-26T05:44:16.353Z,23.58
2022-08-26T05:47:04.791Z,23.00
2022-08-26T05:49:53.182Z,23.40
2022-08-26T05:52:40.672Z,23.65
2022-08-26T05:55:30.033Z,22.15
2022-08-26T05:58:21.138Z,19.85
2022-08-26T06:01:12.312Z,20.95
2022-08-26T06:04:02.304Z,18.90
2022-08-26T06:06:49.840Z,21.15
2022-08-26T06:09:38.531Z,19.02
2022-08-26T06:12:27.912Z,17.88
2022-08-26T06:15:16.270Z,18.38
2022-08-26T06:18:04.281Z,17.25
2022-08-26T06:20:57.949Z,16.23
2022-08-26T06:24:04.344Z,17.10
2022-08-26T06:26:54.270Z,16.00
2022-08-26T06:29:43.652Z,16.10
2022-08-26T06:32:31.707Z,15.77
2022-08-26T06:35:20.117Z,16.45
2022-08-26T06:38:09.309Z,15.05
2022-08-26T06:40:59.768Z,15.55
2022-08-26T06:43:47.742Z,16.02
2022-08-26T06:46:37.421Z,16.35
2022-08-26T06:49:25.759Z,14.88
2022-08-26T06:52:17.169Z,15.05
2022-08-26T06:55:10.133Z,15.35
2022-08-26T06:57:58.427Z,14.00
2022-08-26T07:00:47.259Z,14.77
2022-08-26T07:03:39.585Z,14.23
2022-08-26T07:06:29.353Z,13.13
2022-08-26T07:09:17.493Z,13.95
2022-08-26T07:12:06.822Z,13.98
2022-08-26T07:14:55.387Z,13.77
2022-08-26T07:17:45.794Z,12.55
2022-08-26T07:20:39.276Z,13.93
2022-08-26T07:23:30.020Z,12.88
2022-08-26T07:26:20.377Z,12.18
2022-08-26T07:29:08.046Z,13.40
2022-08-26T07:31:56.342Z,13.45
2022-08-26T07:34:45.019Z,12.75
2022-08-26T07:37:35.604Z,13.05
2022-08-26T07:40:27.355Z,12.07
2022-08-26T07:43:14.913Z,11.88
2022-08-26T07:46:03.453Z,12.85
2022-08-26T07:48:52.069Z,12.23
2022-08-26T07:51:40.869Z,12.35
2022-08-26T07:54:30.500Z,12.05
2022-08-26T07:57:19.088Z,11.90
2022-08-26T08:00:09.827Z,11.85
2022-08-26T08:02:59.917Z,11.63
2022-08-26T08:05:48.840Z,11.88
2022-08-26T08:08:36.511Z,10.82
2022-08-26T08:11:27.320Z,11.20
2022-08-26T08:14:15.563Z,10.70
2022-08-26T08:17:05.897Z,10.98
2022-08-26T08:19:54.698Z,10.52
2022-08-26T08:22:43.657Z,10.55
2022-08-26T08:25:32.385Z,11.88
2022-08-26T08:28:21.527Z,11.50
2022-08-26T08:31:09.904Z,10.93
2022-08-26T08:33:58.022Z,10.30
2022-08-26T08:36:46.808Z,11.32
2022-08-26T08:39:34.492Z,10.18
2022-08-26T08:42:43.817Z,9.80
2022-08-26T08:45:37.667Z,10.38
2022-08-26T08:48:29.519Z,9.60
2022-08-26T08:51:24.720Z,9.32
2022-08-26T08:54:12.684Z,9.98
2022-08-26T08:57:07.512Z,9.68
2022-08-26T09:00:01.492Z,8.55
2022-08-26T09:02:54.971Z,8.85
2022-08-26T09:05:48.682Z,9.10
2022-08-26T09:08:37.105Z,8.77
2022-08-26T09:11:24.737Z,7.90
2022-08-26T09:14:13.298Z,8.13
2022-08-26T09:17:09.976Z,8.20
2022-08-26T09:20:10.767Z,8.88
2022-08-26T09:22:58.936Z,7.80
2022-08-26T09:25:49.158Z,8.27
2022-08-26T09:28:37.555Z,7.60
2022-08-26T09:31:27.610Z,7.93
2022-08-26T09:34:19.306Z,8.05
2022-08-26T09:37:09.269Z,7.93
2022-08-26T09:40:14.701Z,7.25
2022-08-26T09:43:13.523Z,6.85
2022-08-26T09:46:14.561Z,7.00
2022-08-26T09:49:35.791Z,6.93
2022-08-26T09:52:26.745Z,6.40
2022-08-26T09:55:17.160Z,6.45
2022-08-26T09:58:08.755Z,6.32
2022-08-26T10:01:01.499Z,6.47
2022-08-26T10:03:50.161Z,6.20
2022-08-26T10:06:41.864Z,6.22
2022-08-26T10:09:34.113Z,6.85
2022-08-26T10:12:24.030Z,6.50
2022-08-26T10:15:13.067Z,6.95
2022-08-26T10:18:08.178Z,5.88
2022-08-26T10:21:02.710Z,5.45
2022-08-26T10:23:54.409Z,6.00
2022-08-26T10:26:48.893Z,5.72
2022-08-26T10:29:42.478Z,5.07
2022-08-26T10:32:41.319Z,5.80
2022-08-26T10:35:31.923Z,5.70
2022-08-26T10:38:24.061Z,5.93
2022-08-26T10:41:17.042Z,6.22
2022-08-26T10:44:08.392Z,4.95
2022-08-26T10:47:07.146Z,5.28
2022-08-26T10:50:00.447Z,4.93
2022-08-26T10:53:00.697Z,4.55
2022-08-26T10:55:58.344Z,5.25
2022-08-26T10:58:57.295Z,5.05
2022-08-26T11:01:52.476Z,5.40
2022-08-26T11:04:54.277Z,4.55
2022-08-26T11:07:46.100Z,4.78
2022-08-26T11:11:04.216Z,4.47
2022-08-26T11:14:10.734Z,4.57
2022-08-26T11:17:02.055Z,4.88
2022-08-26T11:20:09.184Z,4.50
2022-08-26T11:23:38.977Z,4.72
2022-08-26T11:26:55.674Z,4.35
2022-08-26T11:30:06.454Z,4.70
2022-08-26T11:32:57.800Z,4.03
2022-08-26T11:35:50.430Z,4.43
2022-08-26T11:38:43.550Z,4.55
2022-08-26T11:41:32.014Z,3.97
2022-08-26T11:44:23.917Z,4.70
2022-08-26T11:47:16.120Z,3.85
2022-08-26T11:50:15.608Z,3.85
2022-08-26T11:53:07.608Z,3.72
2022-08-26T11:55:58.210Z,4.05
2022-08-26T11:58:48.247Z,3.75
2022-08-26T12:01:38.017Z,3.67
2022-08-26T12:04:31.166Z,3.65
2022-08-26T12:07:25.206Z,4.00
2022-08-26T12:10:29.514Z,3.65
2022-08-26T12:13:26.564Z,3.75
2022-08-26T12:16:14.577Z,3.90
2022-08-26T12:19:21.925Z,4.00
2022-08-26T12:22:23.340Z,4.07
2022-08-26T12:25:12.913Z,4.22
2022-08-26T12:28:06.644Z,4.00
2022-08-26T12:31:02.504Z,4.13
2022-08-26T12:33:50.846Z,3.85
2022-08-26T12:36:42.475Z,4.05
2022-08-26T12:39:36.653Z,4.15
2022-08-26T12:42:41.482Z,3.90
2022-08-26T12:45:32.185Z,4.10
2022-08-26T12:48:27.144Z,3.50
2022-08-26T12:51:24.211Z,4.05
2022-08-26T12:54:16.129Z,4.30
2022-08-26T12:57:12.599Z,3.67
2022-08-26T13:00:32.236Z,4.10
2022-08-26T13:03:40.397Z,3.70
2022-08-26T13:06:31.493Z,3.67
2022-08-26T13:09:31.608Z,3.67
2022-08-26T13:12:32.878Z,3.47
2022-08-26T13:15:20.746Z,3.60
2022-08-26T13:18:08.478Z,3.55
2022-08-26T13:20:56.137Z,3.80
2022-08-26T13:23:44.776Z,3.50
2022-08-26T13:26:32.879Z,3.50
2022-08-26T13:29:22.045Z,4.03
2022-08-26T13:32:10.998Z,3.42
2022-08-26T13:34:58.882Z,3.45
2022-08-26T13:37:47.795Z,4.07
2022-08-26T13:40:36.843Z,3.35
2022-08-26T13:43:24.691Z,3.80
2022-08-26T13:46:14.566Z,3.75
2022-08-26T13:49:02.469Z,3.50
2022-08-26T13:51:50.553Z,3.70
2022-08-26T13:54:38.811Z,3.40
2022-08-26T13:57:28.094Z,3.75
2022-08-26T14:00:17.292Z,3.50
2022-08-26T14:03:11.342Z,3.28
2022-08-26T14:06:00.802Z,3.08
2022-08-26T14:08:49.590Z,3.38
2022-08-26T14:11:54.588Z,3.17
2022-08-26T14:14:43.734Z,3.45
2022-08-26T14:17:32.984Z,3.28
2022-08-26T14:20:26.266Z,3.40
2022-08-26T14:23:14.631Z,3.22
2022-08-26T14:26:04.043Z,3.25
2022-08-26T14:28:51.917Z,3.20
2022-08-26T14:31:39.741Z,3.30
2022-08-26T14:34:27.491Z,3.15
2022-08-26T14:37:17.933Z,3.65
2022-08-26T14:40:06.889Z,3.40
2022-08-26T14:42:55.836Z,3.22
2022-08-26T14:45:47.963Z,3.60
2022-08-26T14:48:36.110Z,3.53
2022-08-26T14:51:24.483Z,3.58
2022-08-26T14:54:16.301Z,3.15
2022-08-26T14:57:07.262Z,3.30
2022-08-26T14:59:54.964Z,3.38
2022-08-26T15:02:44.584Z,3.33
2022-08-26T15:05:32.695Z,3.50
2022-08-26T15:08:20.889Z,3.30
2022-08-26T15:11:10.439Z,3.17
2022-08-26T15:13:58.175Z,3.22
2022-08-26T15:16:46.122Z,3.60
2022-08-26T15:19:33.795Z,3.20
2022-08-26T15:22:21.778Z,3.30
2022-08-26T15:25:10.519Z,3.50
2022-08-26T15:27:59.898Z,3.00
2022-08-26T15:30:47.532Z,3.25
2022-08-26T15:33:36.349Z,3.35
2022-08-26T15:36:25.302Z,3.72
2022-08-26T15:39:13.569Z,3.38
2022-08-26T15:42:02.002Z,3.20
2022-08-26T15:44:52.465Z,3.33
2022-08-26T15:47:55.210Z,3.25
2022-08-26T15:50:52.610Z,3.60
2022-08-26T15:53:40.719Z,2.95
2022-08-26T15:56:31.174Z,2.92
2022-08-26T15:59:20.812Z,3.67
2022-08-26T16:02:09.971Z,3.13
2022-08-26T16:04:57.982Z,2.95
2022-08-26T16:07:47.241Z,3.55
2022-08-26T16:10:35.289Z,3.60
2022-08-26T16:13:23.641Z,3.70
2022-08-26T16:16:11.670Z,2.90
2022-08-26T16:19:05.549Z,3.65
2022-08-26T16:21:54.885Z,2.90
2022-08-26T16:24:42.791Z,3.30
2022-08-26T16:27:30.740Z,3.50
2022-08-26T16:30:19.466Z,3.08
2022-08-26T16:33:07.024Z,3.20
2022-08-26T16:35:56.052Z,3.33
2022-08-26T16:38:47.866Z,3.70
2022-08-26T16:41:36.242Z,3.78
2022-08-26T16:44:24.210Z,3.75
2022-08-26T16:47:18.110Z,3.45
2022-08-26T16:50:09.538Z,3.42
2022-08-26T16:52:59.131Z,3.75
2022-08-26T16:55:47.814Z,3.28
2022-08-26T16:58:35.443Z,2.90
2022-08-26T17:01:23.830Z,2.92
2022-08-26T17:04:11.751Z,3.05
2022-08-26T17:07:00.039Z,3.70
2022-08-26T17:09:49.374Z,3.10
2022-08-26T17:12:37.694Z,3.42
2022-08-26T17:15:26.096Z,2.97
2022-08-26T17:18:13.880Z,3.03
2022-08-26T17:21:03.823Z,3.22
2022-08-26T17:23:51.965Z,3.03
2022-08-26T17:26:44.287Z,2.97
2022-08-26T17:29:36.077Z,3.33
2022-08-26T17:32:23.626Z,3.00
2022-08-26T17:35:13.011Z,3.30
2022-08-26T17:38:00.953Z,3.80
2022-08-26T17:40:48.498Z,3.80
2022-08-26T17:43:38.463Z,3.20
2022-08-26T17:46:26.830Z,3.30
2022-08-26T17:49:14.680Z,3.50
2022-08-26T17:52:02.435Z,3.47
2022-08-26T17:54:53.555Z,3.15
2022-08-26T17:57:42.387Z,3.60
2022-08-26T18:00:31.726Z,3.83
2022-08-26T18:03:20.224Z,3.80
2022-08-26T18:06:11.227Z,3.58
2022-08-26T18:08:59.897Z,4.25
2022-08-26T18:11:47.360Z,3.63
2022-08-26T18:14:35.517Z,3.95
2022-08-26T18:17:24.852Z,4.45
2022-08-26T18:20:16.244Z,4.75
2022-08-26T18:23:04.112Z,4.75
2022-08-26T18:25:52.185Z,4.60
2022-08-26T18:28:40.139Z,5.82
2022-08-26T18:31:27.901Z,5.10
2022-08-26T18:34:17.029Z,5.93
2022-08-26T18:37:20.213Z,5.93
2022-08-26T18:40:10.335Z,7.40
2022-08-26T18:42:58.321Z,7.60
2022-08-26T18:45:46.059Z,12.60
2022-08-26T18:48:33.764Z,11.15
2022-08-26T18:51:24.613Z,11.40
2022-08-26T18:54:12.326Z,10.75
2022-08-26T18:57:00.368Z,10.98
2022-08-26T18:59:48.940Z,10.50
2022-08-26T19:02:37.538Z,15.50
2022-08-26T19:05:26.584Z,10.15
2022-08-26T19:08:15.640Z,8.70
2022-08-26T19:11:03.585Z,8.60
2022-08-26T19:13:51.459Z,8.00
2022-08-26T19:16:39.302Z,6.82
2022-08-26T19:19:27.410Z,6.80
2022-08-26T19:22:15.386Z,7.20
2022-08-26T19:25:05.481Z,6.60
2022-08-26T19:27:53.255Z,6.97
2022-08-26T19:30:41.768Z,7.18
2022-08-26T19:33:30.353Z,6.03
2022-08-26T19:36:22.277Z,6.20
2022-08-26T19:39:10.148Z,6.40
2022-08-26T19:42:00.409Z,5.72
2022-08-26T19:45:02.083Z,5.90
2022-08-26T19:47:49.905Z,5.82
2022-08-26T19:50:38.110Z,5.80
2022-08-26T19:53:26.070Z,7.07
2022-08-26T19:56:14.722Z,6.65
2022-08-26T19:59:03.995Z,6.68
2022-08-26T20:02:00.764Z,6.40
2022-08-26T20:04:49.268Z,6.43
2022-08-26T20:07:37.601Z,6.40
2022-08-26T20:10:25.919Z,6.70
2022-08-26T20:13:13.429Z,6.57
2022-08-26T20:16:02.537Z,6.03
2022-08-26T20:19:07.695Z,6.80
2022-08-26T20:21:55.395Z,7.20
2022-08-26T20:24:43.292Z,8.20
2022-08-26T20:27:38.384Z,7.07
2022-08-26T20:30:26.810Z,8.07
2022-08-26T20:33:15.844Z,7.00
2022-08-26T20:36:03.831Z,6.75
2022-08-26T20:38:56.358Z,8.25
2022-08-26T20:41:45.543Z,7.65
2022-08-26T20:44:33.955Z,7.07
2022-08-26T20:47:21.797Z,6.20
2022-08-26T20:50:11.389Z,6.15
2022-08-26T20:52:59.356Z,5.53
2022-08-26T20:55:47.386Z,6.20
2022-08-26T20:58:35.882Z,5.68
2022-08-26T21:01:25.633Z,6.40
2022-08-26T21:04:15.012Z,5.43
2022-08-26T21:07:03.877Z,5.10
2022-08-26T21:09:53.202Z,5.03
2022-08-26T21:12:40.795Z,5.63
2022-08-26T21:15:28.438Z,5.63
2022-08-26T21:18:19.270Z,5.57
2022-08-26T21:21:09.074Z,5.45
2022-08-26T21:23:58.364Z,5.25
2022-08-26T21:26:48.881Z,5.18
2022-08-26T21:29:38.007Z,5.18
2022-08-26T21:32:25.988Z,5.50
2022-08-26T21:35:13.637Z,5.72
2022-08-26T21:38:01.348Z,5.38
2022-08-26T21:41:00.119Z,6.03
2022-08-26T21:43:49.469Z,5.20
2022-08-26T21:46:38.129Z,5.68
2022-08-26T21:49:26.204Z,4.97
2022-08-26T21:52:14.328Z,5.00
2022-08-26T21:55:03.587Z,4.93
2022-08-26T21:57:58.407Z,4.85
2022-08-26T22:00:50.731Z,5.05
2022-08-26T22:03:47.072Z,4.70
2022-08-26T22:06:40.614Z,5.57
2022-08-26T22:09:31.020Z,5.55
2022-08-26T22:12:19.346Z,6.03
2022-08-26T22:15:10.212Z,5.93
2022-08-26T22:17:59.033Z,7.13
2022-08-26T22:20:47.443Z,7.70
2022-08-26T22:23:36.539Z,6.82
2022-08-26T22:26:26.123Z,7.13
2022-08-26T22:29:14.666Z,7.10
2022-08-26T22:32:04.901Z,7.18
2022-08-26T22:34:52.806Z,6.70
2022-08-26T22:37:40.336Z,7.40
2022-08-26T22:40:28.470Z,7.07
2022-08-26T22:43:16.715Z,6.25
2022-08-26T22:46:05.530Z,6.38
2022-08-26T22:48:55.591Z,6.43
2022-08-26T22:51:43.474Z,6.22
2022-08-26T22:54:31.305Z,5.60
2022-08-26T22:57:19.232Z,6.20
2022-08-26T23:00:07.838Z,6.82
2022-08-26T23:02:59.823Z,6.10
2022-08-26T23:05:49.410Z,6.28
2022-08-26T23:08:39.412Z,6.32
2022-08-26T23:11:27.112Z,5.80
2022-08-26T23:14:15.499Z,6.10
2022-08-26T23:17:03.502Z,6.40
2022-08-26T23:19:51.501Z,5.68
2022-08-26T23:22:40.905Z,5.38
2022-08-26T23:25:31.187Z,5.88
2022-08-26T23:28:20.922Z,4.65
2022-08-26T23:31:09.325Z,5.45
2022-08-26T23:34:14.462Z,5.40
2022-08-26T23:37:02.648Z,5.40
2022-08-26T23:39:56.667Z,5.78
2022-08-26T23:42:44.457Z,6.25
2022-08-26T23:45:33.371Z,5.55
2022-08-26T23:48:22.267Z,5.90
2022-08-26T23:51:28.232Z,5.65
2022-08-26T23:54:16.543Z,5.68
2022-08-26T23:57:06.286Z,6.32
2022-08-26T23:59:54.474Z,6.00
